createdAt,value
2019-03-09T00:03:53.421Z,71.17
2019-03-09T00:08:47.993Z,71.07
2019-03-09T00:13:42.580Z,71.85
2019-03-09T00:18:37.722Z,73.17
2019-03-09T00:23:34.144Z,73.83
2019-03-09T00:28:30.357Z,74.39
2019-03-09T00:33:24.942Z,74.90
2019-03-09T00:38:19.523Z,74.84
2019-03-09T00:43:14.135Z,74.79
2019-03-09T00:48:08.714Z,75.07
2019-03-09T00:53:03.322Z,75.09
2019-03-09T00:57:57.930Z,75.21
2019-03-09T01:02:52.601Z,75.29
2019-03-09T01:07:47.261Z,75.28
2019-03-09T01:12:41.832Z,75.02
2019-03-09T01:17:36.437Z,74.96
2019-03-09T01:22:31.030Z,75.01
2019-03-09T01:27:25.611Z,75.64
2019-03-09T01:32:20.355Z,76.37
2019-03-09T01:37:14.950Z,77.21
2019-03-09T01:42:09.571Z,78.07
2019-03-09T01:47:04.263Z,78.51
2019-03-09T01:51:58.907Z,78.34
2019-03-09T01:56:53.551Z,76.47
2019-03-09T02:01:48.156Z,77.66
2019-03-09T02:06:42.731Z,78.16
2019-03-09T02:11:37.385Z,78.55
2019-03-09T02:16:32.044Z,78.63
2019-03-09T02:21:26.625Z,80.20
2019-03-09T02:26:21.189Z,80.24
2019-03-09T02:31:15.800Z,80.49
2019-03-09T02:36:10.382Z,77.78
2019-03-09T02:41:05.029Z,78.48
2019-03-09T02:45:59.627Z,78.69
2019-03-09T02:50:56.910Z,78.58
2019-03-09T02:55:51.599Z,78.15
2019-03-09T03:00:50.278Z,77.60
2019-03-09T03:05:44.860Z,76.71
2019-03-09T03:10:39.439Z,76.49
2019-03-09T03:15:36.913Z,75.95
2019-03-09T03:20:31.708Z,75.08
2019-03-09T03:25:26.375Z,75.32
2019-03-09T03:30:21.046Z,75.44
2019-03-09T03:35:15.751Z,75.32
2019-03-09T03:40:11.840Z,74.42
2019-03-09T03:45:15.301Z,74.83
2019-03-09T03:50:10.225Z,74.38
2019-03-09T03:55:06.937Z,73.99
2019-03-09T04:00:01.690Z,73.87
2019-03-09T04:04:56.458Z,74.16
2019-03-09T04:09:51.762Z,74.41
2019-03-09T04:14:46.392Z,73.95
2019-03-09T04:19:41.006Z,73.64
2019-03-09T04:24:37.215Z,74.07
2019-03-09T04:29:31.805Z,73.70
2019-03-09T04:34:26.440Z,73.31
2019-03-09T04:39:21.021Z,73.16
2019-03-09T04:44:15.585Z,73.33
2019-03-09T04:49:10.186Z,73.07
2019-03-09T04:54:04.763Z,73.22
2019-03-09T04:58:59.345Z,71.89
2019-03-09T05:04:07.341Z,71.76
2019-03-09T05:09:06.462Z,71.35
2019-03-09T05:14:01.074Z,71.42
2019-03-09T05:18:55.669Z,70.63
2019-03-09T05:23:50.262Z,70.12
2019-03-09T05:28:44.834Z,69.28
2019-03-09T05:33:39.429Z,69.72
2019-03-09T05:38:34.021Z,69.62
2019-03-09T05:43:28.588Z,68.93
2019-03-09T05:48:23.194Z,68.06
2019-03-09T05:53:20.193Z,67.73
2019-03-09T05:58:14.774Z,66.86
2019-03-09T06:03:09.427Z,66.87
2019-03-09T06:08:04.540Z,67.11
2019-03-09T06:12:59.355Z,66.57
2019-03-09T06:17:54.015Z,65.55
2019-03-09T06:22:48.609Z,65.30
2019-03-09T06:27:43.175Z,64.73
2019-03-09T06:32:42.363Z,64.41
2019-03-09T06:37:36.938Z,63.38
2019-03-09T06:42:41.890Z,62.37
2019-03-09T06:47:36.516Z,62.49
2019-03-09T06:52:31.104Z,62.53
2019-03-09T06:57:25.677Z,64.46
2019-03-09T07:02:20.347Z,65.86
2019-03-09T07:07:14.922Z,67.42
2019-03-09T07:12:09.506Z,67.62
2019-03-09T07:17:04.074Z,68.05
2019-03-09T07:21:58.665Z,68.02
2019-03-09T07:26:53.265Z,67.28
2019-03-09T07:31:47.872Z,66.76
2019-03-09T07:36:42.462Z,66.27
2019-03-09T07:41:37.044Z,66.72
2019-03-09T07:46:31.627Z,66.13
2019-03-09T07:51:26.207Z,66.81
2019-03-09T07:56:20.789Z,68.28
2019-03-09T08:01:15.403Z,68.66
2019-03-09T08:06:09.975Z,69.69
2019-03-09T08:11:04.641Z,69.64
2019-03-09T08:15:59.212Z,68.97
2019-03-09T08:20:53.809Z,68.66
2019-03-09T08:25:48.397Z,68.00
2019-03-09T08:30:42.968Z,67.94
2019-03-09T08:35:37.565Z,67.52
2019-03-09T08:40:32.146Z,67.36
2019-03-09T08:45:26.748Z,67.13
2019-03-09T08:50:23.365Z,66.66
2019-03-09T08:55:19.155Z,66.77
2019-03-09T09:00:18.369Z,66.23
2019-03-09T09:05:12.961Z,66.24
2019-03-09T09:10:10.825Z,66.27
2019-03-09T09:15:09.859Z,66.31
2019-03-09T09:20:06.539Z,66.46
2019-03-09T09:25:01.122Z,66.36
2019-03-09T09:29:55.725Z,66.62
2019-03-09T09:34:50.319Z,67.04
2019-03-09T09:39:44.928Z,67.10
2019-03-09T09:44:39.519Z,66.39
2019-03-09T09:49:34.200Z,65.75
2019-03-09T09:54:28.790Z,64.49
2019-03-09T09:59:23.436Z,64.54
2019-03-09T10:04:18.036Z,63.99
2019-03-09T10:09:12.651Z,63.43
2019-03-09T10:14:07.275Z,63.78
2019-03-09T10:19:01.885Z,62.76
2019-03-09T10:23:56.522Z,62.74
2019-03-09T10:28:51.142Z,62.06
2019-03-09T10:33:45.722Z,61.14
2019-03-09T10:38:40.311Z,61.40
2019-03-09T10:43:34.883Z,60.33
2019-03-09T10:48:29.481Z,60.59
2019-03-09T10:53:24.057Z,59.28
2019-03-09T10:58:18.656Z,58.48
2019-03-09T11:03:13.253Z,58.01
2019-03-09T11:08:08.075Z,56.98
2019-03-09T11:13:02.668Z,55.73
2019-03-09T11:17:57.244Z,55.14
2019-03-09T11:22:51.897Z,55.03
2019-03-09T11:27:46.479Z,54.42
2019-03-09T11:32:41.099Z,53.49
2019-03-09T11:37:35.694Z,53.39
2019-03-09T11:42:30.274Z,53.98
2019-03-09T11:47:24.890Z,53.81
2019-03-09T11:52:20.632Z,53.94
2019-03-09T11:57:15.439Z,54.10
2019-03-09T12:02:10.043Z,54.51
2019-03-09T12:07:04.712Z,54.08
2019-03-09T12:12:02.785Z,54.39
2019-03-09T12:16:57.373Z,54.58
2019-03-09T12:21:51.961Z,55.39
2019-03-09T12:26:46.563Z,55.77
2019-03-09T12:31:41.142Z,56.74
2019-03-09T12:36:35.732Z,56.99
2019-03-09T12:41:30.320Z,57.50
2019-03-09T12:46:24.902Z,57.62
2019-03-09T12:51:19.506Z,57.64
2019-03-09T12:56:14.103Z,57.82
2019-03-09T13:01:08.692Z,57.64
2019-03-09T13:06:03.281Z,57.21
2019-03-09T13:10:57.941Z,57.00
2019-03-09T13:15:52.610Z,56.75
2019-03-09T13:20:47.195Z,56.63
2019-03-09T13:25:41.844Z,56.96
2019-03-09T13:30:36.420Z,57.00
2019-03-09T13:35:31.016Z,57.08
2019-03-09T13:40:25.597Z,56.99
2019-03-09T13:45:20.196Z,57.41
2019-03-09T13:50:16.041Z,57.54
2019-03-09T13:55:12.071Z,58.17
2019-03-09T14:00:11.097Z,58.33
2019-03-09T14:05:08.730Z,58.58
2019-03-09T14:10:03.970Z,58.18
2019-03-09T14:14:58.570Z,58.23
2019-03-09T14:19:53.215Z,58.04
2019-03-09T14:24:47.821Z,57.34
2019-03-09T14:29:42.410Z,57.74
2019-03-09T14:34:37.036Z,57.67
2019-03-09T14:39:31.613Z,57.44
2019-03-09T14:44:26.206Z,58.41
2019-03-09T14:49:20.783Z,59.57
2019-03-09T14:54:15.366Z,60.28
2019-03-09T14:59:10.058Z,62.60
2019-03-09T15:04:04.794Z,66.04
2019-03-09T15:08:59.399Z,68.87
2019-03-09T15:13:55.800Z,71.75
2019-03-09T15:18:50.392Z,72.78
2019-03-09T15:23:44.994Z,73.41
2019-03-09T15:28:39.570Z,74.32
2019-03-09T15:33:34.172Z,76.43
2019-03-09T15:38:28.759Z,78.31
2019-03-09T15:43:23.362Z,79.71
2019-03-09T15:48:18.092Z,80.78
2019-03-09T15:53:12.700Z,81.51
2019-03-09T15:58:07.565Z,81.38
2019-03-09T16:03:02.165Z,81.40
2019-03-09T16:07:56.743Z,81.53
2019-03-09T16:12:51.332Z,81.12
2019-03-09T16:17:46.141Z,80.74
2019-03-09T16:22:40.802Z,80.05
2019-03-09T16:27:35.376Z,79.74
2019-03-09T16:32:29.977Z,79.37
2019-03-09T16:37:24.574Z,78.56
2019-03-09T16:42:19.180Z,78.62
2019-03-09T16:47:13.748Z,78.74
2019-03-09T16:52:08.344Z,78.75
2019-03-09T16:57:02.948Z,78.70
2019-03-09T17:01:57.552Z,79.11
2019-03-09T17:06:52.231Z,79.18
2019-03-09T17:11:46.817Z,79.28
2019-03-09T17:16:41.418Z,79.42
2019-03-09T17:21:36.013Z,79.44
2019-03-09T17:26:30.607Z,79.79
2019-03-09T17:31:25.279Z,80.36
2019-03-09T17:36:19.878Z,80.77
2019-03-09T17:41:14.500Z,80.66
2019-03-09T17:46:09.079Z,80.57
2019-03-09T17:51:03.700Z,80.64
2019-03-09T17:55:58.320Z,80.68
2019-03-09T18:00:52.928Z,80.56
2019-03-09T18:05:47.504Z,80.46
2019-03-09T18:10:49.672Z,80.09
2019-03-09T18:15:44.341Z,80.24
2019-03-09T18:20:38.943Z,79.97
2019-03-09T18:25:33.604Z,79.99
2019-03-09T18:30:28.192Z,79.61
2019-03-09T18:35:22.772Z,79.55
2019-03-09T18:40:18.328Z,79.36
2019-03-09T18:45:24.071Z,79.37
2019-03-09T18:50:18.673Z,78.96
2019-03-09T18:55:13.466Z,78.87
2019-03-09T19:00:18.046Z,78.71
2019-03-09T19:05:12.773Z,78.69
2019-03-09T19:10:11.958Z,78.70
2019-03-09T19:15:10.612Z,78.83
2019-03-09T19:20:08.552Z,78.49
2019-03-09T19:25:03.196Z,78.35
2019-03-09T19:29:57.853Z,78.21
2019-03-09T19:34:52.430Z,77.91
2019-03-09T19:39:47.139Z,77.85
2019-03-09T19:44:41.692Z,77.33
2019-03-09T19:49:36.287Z,76.96
2019-03-09T19:54:30.905Z,76.66
2019-03-09T19:59:25.497Z,76.70
2019-03-09T20:04:20.085Z,76.67
2019-03-09T20:09:15.525Z,76.40
2019-03-09T20:14:10.126Z,76.00
2019-03-09T20:19:04.733Z,75.68
2019-03-09T20:23:59.350Z,75.66
2019-03-09T20:28:53.943Z,75.46
2019-03-09T20:33:48.534Z,75.18
2019-03-09T20:38:43.154Z,75.11
2019-03-09T20:43:37.726Z,75.07
2019-03-09T20:48:32.329Z,75.02
2019-03-09T20:53:26.902Z,75.20
2019-03-09T20:58:21.498Z,75.11
2019-03-09T21:03:16.096Z,74.95
2019-03-09T21:08:10.697Z,75.29
2019-03-09T21:13:12.810Z,75.47
2019-03-09T21:18:07.452Z,75.66
2019-03-09T21:23:02.057Z,75.91
2019-03-09T21:27:56.629Z,76.23
2019-03-09T21:32:51.230Z,76.40
2019-03-09T21:37:45.815Z,76.58
2019-03-09T21:42:40.474Z,76.60
2019-03-09T21:47:35.056Z,76.74
2019-03-09T21:52:29.649Z,76.82
2019-03-09T21:57:24.254Z,76.91
2019-03-09T22:02:18.854Z,76.86
2019-03-09T22:07:13.455Z,76.99
2019-03-09T22:12:08.071Z,77.08
2019-03-09T22:17:02.657Z,77.10
2019-03-09T22:21:57.253Z,77.22
2019-03-09T22:26:51.848Z,77.73
2019-03-09T22:31:46.441Z,77.67
2019-03-09T22:36:41.033Z,77.88
2019-03-09T22:41:35.647Z,77.25
2019-03-09T22:46:30.253Z,77.13
2019-03-09T22:51:24.866Z,77.23
2019-03-09T22:56:19.524Z,77.16
2019-03-09T23:01:14.249Z,77.47
2019-03-09T23:06:08.857Z,78.07
2019-03-09T23:11:03.449Z,78.94
2019-03-09T23:15:58.045Z,79.25
2019-03-09T23:20:52.631Z,79.40
2019-03-09T23:25:47.237Z,79.71
2019-03-09T23:30:41.850Z,79.75
2019-03-09T23:35:36.501Z,80.15
2019-03-09T23:40:31.096Z,80.22
2019-03-09T23:45:29.518Z,80.59
2019-03-09T23:50:24.306Z,80.96
2019-03-09T23:55:22.367Z,81.29
